createdAt,value
2023-01-28T00:07:02.713Z,97466.47
2023-01-28T00:17:09.089Z,97460.44
2023-01-28T00:27:15.338Z,97472.34
2023-01-28T00:37:21.638Z,97497.19
2023-01-28T00:47:27.901Z,97464.16
2023-01-28T00:57:35.139Z,97478.81
2023-01-28T01:07:44.813Z,97483.88
2023-01-28T01:17:51.956Z,97510.50
2023-01-28T01:27:58.225Z,97515.31
2023-01-28T01:38:04.754Z,97524.63
2023-01-28T01:48:19.806Z,97528.62
2023-01-28T01:58:31.468Z,97530.22
2023-01-28T02:08:37.793Z,97530.87
2023-01-28T02:18:44.107Z,97581.62
2023-01-28T02:29:04.993Z,97578.22
2023-01-28T02:39:20.606Z,97555.91
2023-01-28T02:49:33.083Z,97562.53
2023-01-28T03:00:05.648Z,97579.91
2023-01-28T03:10:17.623Z,97587.78
2023-01-28T03:20:45.415Z,97571.06
2023-01-28T03:31:33.545Z,97586.53
2023-01-28T03:41:39.915Z,97591.06
2023-01-28T03:51:47.426Z,97579.19
2023-01-28T04:01:53.738Z,97574.19
2023-01-28T04:12:00.764Z,97555.44
2023-01-28T04:22:08.382Z,97548.66
2023-01-28T04:32:14.676Z,97519.25
2023-01-28T04:42:20.994Z,97501.41
2023-01-28T04:52:27.309Z,97458.69
2023-01-28T05:02:33.668Z,97411.56
2023-01-28T05:12:40.025Z,97445.69
2023-01-28T05:22:46.330Z,97468.06
2023-01-28T05:32:56.380Z,97486.84
2023-01-28T05:43:02.731Z,97467.22
2023-01-28T05:53:09.075Z,97427.84
2023-01-28T06:03:15.518Z,97476.78
2023-01-28T06:13:21.929Z,97567.44
2023-01-28T06:23:28.272Z,97580.00
2023-01-28T06:33:34.563Z,97623.63
2023-01-28T06:43:40.886Z,97634.56
2023-01-28T06:53:47.212Z,97679.31
2023-01-28T07:03:53.533Z,97693.09
2023-01-28T07:13:59.931Z,97699.94
2023-01-28T07:24:07.384Z,97699.97
2023-01-28T07:34:14.048Z,97683.59
2023-01-28T07:44:20.423Z,97683.59
2023-01-28T07:54:26.714Z,97661.72
2023-01-28T08:04:33.078Z,97658.63
2023-01-28T08:14:39.499Z,97688.06
2023-01-28T08:24:45.817Z,97723.13
2023-01-28T08:34:52.207Z,97733.12
2023-01-28T08:44:58.482Z,97731.41
2023-01-28T08:55:05.126Z,97748.34
2023-01-28T09:05:12.161Z,97755.97
2023-01-28T09:15:19.105Z,97765.31
2023-01-28T09:25:25.408Z,97770.31
2023-01-28T09:35:31.775Z,97778.72
2023-01-28T09:45:41.668Z,97820.63
2023-01-28T09:55:51.734Z,97807.44
2023-01-28T10:05:57.936Z,97812.41
2023-01-28T10:16:17.901Z,97814.16
2023-01-28T10:26:34.490Z,97807.84
2023-01-28T10:36:40.991Z,97800.00
2023-01-28T10:46:48.572Z,97824.88
2023-01-28T10:57:04.327Z,97818.66
2023-01-28T11:07:21.981Z,97811.56
2023-01-28T11:17:31.491Z,97830.56
2023-01-28T11:27:38.492Z,97824.47
2023-01-28T11:37:49.824Z,97828.44
2023-01-28T11:48:01.866Z,97817.75
2023-01-28T11:58:53.385Z,97858.44
2023-01-28T12:09:14.754Z,97873.94
2023-01-28T12:19:30.964Z,97836.72
2023-01-28T12:29:51.975Z,97831.59
2023-01-28T12:40:27.708Z,97827.63
2023-01-28T12:50:44.387Z,97824.28
2023-01-28T13:00:53.145Z,97804.53
2023-01-28T13:11:03.375Z,97843.78
2023-01-28T13:21:16.612Z,97825.62
2023-01-28T13:31:24.830Z,97831.81
2023-01-28T13:41:42.438Z,97832.53
2023-01-28T13:51:59.903Z,97806.69
2023-01-28T14:02:30.690Z,97812.66
2023-01-28T14:12:55.758Z,97813.72
2023-01-28T14:23:19.990Z,97793.97
2023-01-28T14:33:26.903Z,97798.31
2023-01-28T14:43:33.598Z,97787.22
2023-01-28T14:53:52.929Z,97785.53
2023-01-28T15:03:59.432Z,97782.03
2023-01-28T15:14:06.573Z,97788.16
2023-01-28T15:24:17.210Z,97785.63
2023-01-28T15:34:31.212Z,97777.06
2023-01-28T15:44:45.564Z,97785.69
2023-01-28T15:54:53.257Z,97783.06
2023-01-28T16:05:03.331Z,97787.38
2023-01-28T16:15:19.616Z,97789.25
2023-01-28T16:25:31.032Z,97773.81
2023-01-28T16:36:01.328Z,97763.72
2023-01-28T16:46:07.909Z,97751.19
2023-01-28T16:56:30.689Z,97740.88
2023-01-28T17:06:47.647Z,97713.56
2023-01-28T17:16:54.082Z,97713.56
2023-01-28T17:27:00.433Z,97709.88
2023-01-28T17:37:06.848Z,97633.91
2023-01-28T17:47:13.158Z,97598.41
2023-01-28T17:57:19.478Z,97520.94
2023-01-28T18:07:25.842Z,97480.16
2023-01-28T18:17:32.162Z,97441.84
2023-01-28T18:27:38.514Z,97384.13
2023-01-28T18:37:44.910Z,97339.97
2023-01-28T18:47:51.300Z,97271.69
2023-01-28T18:57:58.115Z,97230.03
2023-01-28T19:08:06.778Z,97182.91
2023-01-28T19:18:13.073Z,97152.13
2023-01-28T19:28:19.985Z,97142.16
2023-01-28T19:38:28.188Z,97135.91
2023-01-28T19:48:34.615Z,97087.88
2023-01-28T19:58:42.853Z,97053.13
2023-01-28T20:08:54.148Z,97014.22
2023-01-28T20:19:02.979Z,96974.91
2023-01-28T20:29:19.184Z,96943.44
2023-01-28T20:39:25.740Z,96933.22
2023-01-28T20:49:32.823Z,96913.72
2023-01-28T20:59:39.213Z,96928.41
2023-01-28T21:09:45.745Z,96950.94
2023-01-28T21:19:52.143Z,96944.84
2023-01-28T21:29:58.583Z,96952.34
2023-01-28T21:40:06.164Z,96991.13
2023-01-28T21:50:12.757Z,97017.75
2023-01-28T22:00:19.666Z,97016.56
2023-01-28T22:10:26.164Z,97052.03
2023-01-28T22:20:32.456Z,97066.37
2023-01-28T22:30:38.806Z,97091.34
2023-01-28T22:40:45.070Z,97145.94
2023-01-28T22:50:51.348Z,97232.63
2023-01-28T23:00:57.705Z,97305.63
2023-01-28T23:11:04.424Z,97375.41
2023-01-28T23:21:38.438Z,97440.94
2023-01-28T23:31:47.883Z,97465.63
2023-01-28T23:41:54.297Z,97475.81
2023-01-28T23:52:00.705Z,97487.72
